ADDS METAR Data INFO
IDs: Format: Raw Decoded Include TAF

Data at: 1023 UTC 12 Dec 2017

KEBA 121015Z AUTO 24005KT 10SM CLR 04/00 A2984 RMK AO2 T00400001
KEBA 120955Z AUTO 23005KT 10SM CLR 04/00 A2984 RMK AO2 T00380000
KEBA 120935Z AUTO 23007KT 10SM CLR 04/00 A2985 RMK AO2 T00360000
KEBA 120915Z AUTO 22005KT 10SM CLR 04/00 A2986 RMK AO2 T00350000
KEBA 120855Z AUTO 23006KT 10SM CLR 03/00 A2986 RMK AO2 T00341001
KEBA 120835Z AUTO 23005KT 10SM CLR 03/00 A2987 RMK AO2 T00321001
KEBA 120815Z AUTO 22006KT 10SM CLR 02/00 A2988 RMK AO2 T00161003
KEBA 120755Z AUTO 21004KT 10SM CLR 01/M01 A2989 RMK AO2 T00061011
KEBA 120735Z AUTO 21003KT 10SM CLR 01/M01 A2990 RMK AO2 T00071011
KEBA 120715Z AUTO 00000KT 10SM CLR 01/M01 A2991 RMK AO2 T00101011
KEBA 120655Z AUTO 22004KT 10SM CLR 02/00 A2991 RMK AO2 T00151005
KEBA 120635Z AUTO 22003KT 10SM CLR 02/00 A2992 RMK AO2 T00171005
KEBA 120615Z AUTO 24003KT 10SM CLR 02/00 A2993 RMK AO2 T00201005
KEBA 120555Z AUTO 23004KT 10SM CLR 02/00 A2994 RMK AO2 T00241002 10075 20024 401630000
KEBA 120535Z AUTO 24005KT 10SM CLR 04/00 A2995 RMK AO2 T00370003
KEBA 120515Z AUTO 23005KT 10SM CLR 03/00 A2995 RMK AO2 T00340003
KEBA 120455Z AUTO 21004KT 10SM CLR 03/00 A2995 RMK AO2 T00250000
KEBA 120435Z AUTO 22004KT 10SM CLR 03/00 A2996 RMK AO2 T00250001
KEBA 120415Z AUTO 23003KT 10SM CLR 03/00 A2998 RMK AO2 T00310004
KEBA 120355Z AUTO 00000KT 10SM CLR 03/00 A2998 RMK AO2 T00340000
KEBA 120335Z AUTO 24003KT 10SM CLR 04/00 A2999 RMK AO2 T00400002
KEBA 120315Z AUTO 24005KT 10SM CLR 06/00 A2999 RMK AO2 T00550003
KEBA 120255Z AUTO 24005KT 10SM CLR 05/01 A3000 RMK AO2 T00480008
KEBA 120235Z AUTO 22004KT 10SM CLR 05/01 A2999 RMK AO2 T00470009
KEBA 120215Z AUTO 21003KT 10SM CLR 05/01 A3000 RMK AO2 T00450007
KEBA 120155Z AUTO 24003KT 10SM CLR 04/00 A3000 RMK AO2 T00440004
KEBA 120135Z AUTO 21003KT 10SM CLR 05/01 A3001 RMK AO2 T00500005
KEBA 120115Z AUTO 24004KT 10SM CLR 06/00 A3002 RMK AO2 T00560003
KEBA 120055Z AUTO 00000KT 10SM CLR 06/00 A3001 RMK AO2 T00600004
KEBA 120035Z AUTO 18003KT 10SM CLR 07/01 A3001 RMK AO2 T00660005
KEBA 120015Z AUTO 19003KT 10SM CLR 07/01 A3002 RMK AO2 T00660007
KEBA 112355Z AUTO 00000KT 10SM CLR 08/01 A3002 RMK AO2 T00760006 10163 20076
KEBA 112335Z AUTO 21003KT 10SM CLR 09/00 A3003 RMK AO2 T00861002
KEBA 112315Z AUTO 21003KT 10SM CLR 10/M01 A3003 RMK AO2 T01031013
KEBA 112255Z AUTO 21004KT 10SM CLR 11/M01 A3003 RMK AO2 T01061015
KEBA 112235Z AUTO 23005KT 10SM CLR 12/M02 A3003 RMK AO2 T01151023
KEBA 112215Z AUTO 24004KT 10SM CLR 14/M05 A3003 RMK AO2 T01351052
KEBA 112155Z AUTO 23004KT 10SM CLR 15/M07 A3003 RMK AO2 T01491068
KEBA 112135Z AUTO 24005KT 10SM CLR 16/M08 A3003 RMK AO2 T01551082
KEBA 112115Z AUTO 26008KT 10SM CLR 16/M08 A3004 RMK AO2 T01601083
KEBA 112055Z AUTO 26011KT 10SM CLR 16/M08 A3004 RMK AO2 T01621085
KEBA 112035Z AUTO 23005KT 10SM CLR 16/M08 A3004 RMK AO2 T01631085
KEBA 112015Z AUTO 25008KT 10SM CLR 16/M08 A3005 RMK AO2 T01621085
KEBA 111955Z AUTO 23006KT 10SM CLR 16/M09 A3005 RMK AO2 T01621091
KEBA 111935Z AUTO 23006KT 10SM CLR 16/M09 A3006 RMK AO2 T01591090
KEBA 111915Z AUTO 24007KT 210V270 10SM CLR 16/M08 A3007 RMK AO2 T01581085
KEBA 111855Z AUTO 26004KT 10SM CLR 16/M08 A3007 RMK AO2 T01561084
KEBA 111835Z AUTO 27007KT 10SM CLR 15/M08 A3009 RMK AO2 T01531083
KEBA 111815Z AUTO 24003KT 10SM CLR 15/M07 A3010 RMK AO2 T01471073
KEBA 111755Z AUTO 24004KT 10SM CLR 14/M08 A3011 RMK AO2 T01411077 10141 20000
KEBA 111735Z AUTO 27005KT 10SM CLR 14/M07 A3013 RMK AO2 T01351067
KEBA 111715Z AUTO 25006KT 10SM CLR 13/M06 A3015 RMK AO2 T01291064
KEBA 111655Z AUTO 27006KT 10SM CLR 12/M06 A3016 RMK AO2 T01201057
KEBA 111635Z AUTO 23005KT 10SM CLR 11/M05 A3018 RMK AO2 T01101051
KEBA 111615Z AUTO 28004KT 10SM CLR 10/M05 A3018 RMK AO2 T01011054
KEBA 111555Z AUTO 24004KT 10SM CLR 10/M05 A3019 RMK AO2 T00961046
KEBA 111535Z AUTO 23005KT 10SM CLR 09/M05 A3019 RMK AO2 T00901050
KEBA 111515Z AUTO 28005KT 10SM CLR 08/M05 A3019 RMK AO2 T00771050
KEBA 111455Z AUTO 27006KT 10SM CLR 07/M05 A3019 RMK AO2 T00701046
KEBA 111435Z AUTO 27008KT 10SM CLR 06/M04 A3019 RMK AO2 T00621042
KEBA 111415Z AUTO 27007KT 10SM CLR 05/M04 A3020 RMK AO2 T00511042
KEBA 111355Z AUTO 28007KT 10SM CLR 05/M04 A3019 RMK AO2 T00451040
KEBA 111335Z AUTO 29005KT 10SM CLR 04/M04 A3019 RMK AO2 T00351038
KEBA 111315Z AUTO 31003KT 10SM CLR 02/M04 A3019 RMK AO2 T00201037
KEBA 111255Z AUTO 29007KT 10SM CLR 01/M04 A3020 RMK AO2 T00101038
KEBA 111235Z AUTO 26003KT 10SM CLR 00/M04 A3020 RMK AO2 T00011042
KEBA 111215Z AUTO 27003KT 10SM CLR 00/M04 A3020 RMK AO2 T00041042
KEBA 111155Z AUTO 28005KT 10SM CLR 01/M04 A3019 RMK AO2 T00051042 10018 20000
KEBA 111135Z AUTO 27005KT 10SM CLR 00/M04 A3019 RMK AO2 T00041042
KEBA 111115Z AUTO 27004KT 10SM CLR 01/M04 A3019 RMK AO2 T00051043
KEBA 111055Z AUTO 25004KT 10SM CLR 01/M04 A3018 RMK AO2 T00061045
KEBA 111035Z AUTO 26004KT 10SM CLR 01/M04 A3019 RMK AO2 T00081045
KEBA 111015Z AUTO 26006KT 10SM CLR 01/M04 A3018 RMK AO2 T00101044
KEBA 110955Z AUTO 26006KT 10SM CLR 01/M04 A3018 RMK AO2 T00081044
KEBA 110935Z AUTO 26006KT 10SM CLR 00/M04 A3018 RMK AO2 T00031043
KEBA 110915Z AUTO 25004KT 10SM CLR 00/M05 A3019 RMK AO2 T00041046
KEBA 110855Z AUTO 25004KT 10SM CLR 01/M05 A3019 RMK AO2 T00061048
KEBA 110835Z AUTO 26005KT 10SM CLR 01/M05 A3020 RMK AO2 T00101050
KEBA 110815Z AUTO 26005KT 10SM CLR 02/M05 A3020 RMK AO2 T00151051
KEBA 110755Z AUTO 27006KT 10SM CLR 02/M05 A3020 RMK AO2 T00161053
KEBA 110735Z AUTO 27007KT 10SM CLR 02/M05 A3021 RMK AO2 T00161053
KEBA 110715Z AUTO 28007KT 10SM CLR 02/M05 A3021 RMK AO2 T00161055
KEBA 110655Z AUTO 27006KT 10SM CLR 02/M06 A3021 RMK AO2 T00161056
KEBA 110635Z AUTO 26008KT 10SM CLR 02/M06 A3022 RMK AO2 T00171059
KEBA 110615Z AUTO 25007KT 10SM CLR 02/M06 A3023 RMK AO2 T00161060
KEBA 110555Z AUTO 26007KT 10SM CLR 02/M06 A3024 RMK AO2 T00181061 10040 20017 400961016
KEBA 110535Z AUTO 26007KT 10SM CLR 02/M06 A3024 RMK AO2 T00201063
KEBA 110515Z AUTO 26008KT 10SM CLR 02/M06 A3024 RMK AO2 T00201063
KEBA 110455Z AUTO 26006KT 10SM CLR 02/M06 A3024 RMK AO2 T00201065
KEBA 110435Z AUTO 26008KT 10SM CLR 02/M06 A3024 RMK AO2 T00211065
KEBA 110415Z AUTO 25007KT 10SM CLR 02/M06 A3024 RMK AO2 T00231065
KEBA 110355Z AUTO 26008KT 10SM CLR 02/M07 A3024 RMK AO2 T00211066
KEBA 110335Z AUTO 26006KT 10SM CLR 02/M07 A3024 RMK AO2 T00201070
KEBA 110315Z AUTO 26004KT 10SM CLR 02/M07 A3023 RMK AO2 T00211072
KEBA 110255Z AUTO 26005KT 10SM CLR 03/M07 A3022 RMK AO2 T00251073
KEBA 110235Z AUTO 25005KT 10SM CLR 02/M07 A3022 RMK AO2 T00241074
KEBA 110220Z AUTO 25006KT 10SM CLR 03/M07 A3022 RMK AO2 T00251075
KEBA 110155Z AUTO 26005KT 10SM CLR 03/M08 A3022 RMK AO2 T00281076
KEBA 110135Z AUTO 25005KT 10SM CLR 03/M08 A3021 RMK AO2 T00291078
KEBA 110115Z AUTO 26005KT 10SM CLR 03/M08 A3021 RMK AO2 T00321083
KEBA 110055Z AUTO 26006KT 10SM CLR 03/M08 A3022 RMK AO2 T00341081
KEBA 110035Z AUTO 26004KT 10SM CLR 03/M08 A3022 RMK AO2 T00321082
KEBA 110015Z AUTO 26005KT 10SM CLR 04/M09 A3022 RMK AO2 T00361087
KEBA 102355Z AUTO 28004KT 10SM CLR 04/M09 A3022 RMK AO2 T00411095 10096 20025
KEBA 102335Z AUTO 27003KT 10SM CLR 03/M07 A3022 RMK AO2 T00281067
KEBA 102315Z AUTO 27003KT 10SM CLR 04/M08 A3022 RMK AO2 T00371076
KEBA 102255Z AUTO 28004KT 10SM CLR 05/M10 A3021 RMK AO2 T00521104
KEBA 102235Z AUTO 25004KT 10SM CLR 06/M12 A3020 RMK AO2 T00581118